Rock Springs, Wisconsin
Current Conditions -  °F | °C
As of 7:55 AM on Monday 24 Nov 2014 (Local Time) from KC35 Reporting Station
Haze Haze  
Wind Chill: 26°   Ceiling: 600
Heat Index: 35°   Visibility: 3mi
Dew Point: 34°   Wind: 14mph
Humidity: 97%   Direction: 290°WNW
Pressure: 29.13"   Gusts: 17mph
Location:  43.49°N, 89.92°W
Report Text: KC35 241355Z AUTO 29012G15KT 3SM BR OVC006 02/01 A2913 RMK AO2 T00170012
Loading
Personal Weather Stations






























Interactive Weather Map New forecast layout! Learn more

10-Day Weather Forecast

Advertisements
Track Severe Weather on mobile